Terminal Aerodrome Forecast
Issued by NWS

Current Version | Previous Version | Graphics & Text | Print | Product List | Glossary On
Versions: 1 2 3 4 5 6 7 8 9 10 11 12 13 14 15 16 17 18 19 20 21 22
000
FTUS41 KPBZ 150547
TAFMGW
TAF
KMGW 150547Z 1506/1606 VRB06KT 5SM -DZ BR OVC012 WS020/23035KT
     FM151000 22009KT 3SM -DZ BR OVC006 WS020/23035KT
     FM152000 23010G24KT 5SM -RA BR OVC008
     FM160000 22010G26KT 3SM RA BR OVC006=

USA.gov is the U.S. government's official web portal to all federal, state and local government web resources and services.